sensor_id;sensor_type;location;lat;lon;timestamp;temperature;humidity
7972;DHT22;4031;49.758;6.120;2022-09-09T00:00:42;14.30;99.90
7972;DHT22;4031;49.758;6.120;2022-09-09T00:03:24;14.30;99.90
7972;DHT22;4031;49.758;6.120;2022-09-09T00:14:58;14.20;99.90
7972;DHT22;4031;49.758;6.120;2022-09-09T00:23:39;14.00;99.90
7972;DHT22;4031;49.758;6.120;2022-09-09T00:29:45;13.80;99.90
7972;DHT22;4031;49.758;6.120;2022-09-09T00:32:18;13.70;99.90
7972;DHT22;4031;49.758;6.120;2022-09-09T00:34:54;13.60;99.90
7972;DHT22;4031;49.758;6.120;2022-09-09T00:37:24;13.50;99.90
7972;DHT22;4031;49.758;6.120;2022-09-09T00:39:53;13.50;99.90
7972;DHT22;4031;49.758;6.120;2022-09-09T00:42:25;13.40;99.90
7972;DHT22;4031;49.758;6.120;2022-09-09T00:48:01;13.50;99.90
7972;DHT22;4031;49.758;6.120;2022-09-09T00:56:09;13.70;99.90
7972;DHT22;4031;49.758;6.120;2022-09-09T00:58:42;13.70;99.90
7972;DHT22;4031;49.758;6.120;2022-09-09T01:01:12;13.60;99.90
7972;DHT22;4031;49.758;6.120;2022-09-09T01:06:32;13.40;99.90
7972;DHT22;4031;49.758;6.120;2022-09-09T01:09:21;13.40;99.90
7972;DHT22;4031;49.758;6.120;2022-09-09T01:14:52;13.40;99.90
7972;DHT22;4031;49.758;6.120;2022-09-09T01:17:35;13.50;99.90
7972;DHT22;4031;49.758;6.120;2022-09-09T01:28:26;13.60;99.90
7972;DHT22;4031;49.758;6.120;2022-09-09T01:30:53;13.60;99.90
7972;DHT22;4031;49.758;6.120;2022-09-09T01:33:19;13.70;99.90
7972;DHT22;4031;49.758;6.120;2022-09-09T01:38:33;13.60;99.90
7972;DHT22;4031;49.758;6.120;2022-09-09T01:41:00;13.60;99.90
7972;DHT22;4031;49.758;6.120;2022-09-09T01:43:27;13.60;99.90
7972;DHT22;4031;49.758;6.120;2022-09-09T01:45:55;13.60;99.90
7972;DHT22;4031;49.758;6.120;2022-09-09T01:48:24;13.70;99.90
7972;DHT22;4031;49.758;6.120;2022-09-09T01:50:51;13.70;99.90
7972;DHT22;4031;49.758;6.120;2022-09-09T01:53:18;13.70;99.90
7972;DHT22;4031;49.758;6.120;2022-09-09T01:58:45;13.70;99.90
7972;DHT22;4031;49.758;6.120;2022-09-09T02:01:48;13.60;99.90
7972;DHT22;4031;49.758;6.120;2022-09-09T02:04:50;13.60;99.90
7972;DHT22;4031;49.758;6.120;2022-09-09T02:07:40;13.60;99.90
7972;DHT22;4031;49.758;6.120;2022-09-09T02:10:21;13.60;99.90
7972;DHT22;4031;49.758;6.120;2022-09-09T02:13:05;13.70;99.90
7972;DHT22;4031;49.758;6.120;2022-09-09T02:15:55;13.80;99.90
7972;DHT22;4031;49.758;6.120;2022-09-09T02:18:40;13.80;99.90
7972;DHT22;4031;49.758;6.120;2022-09-09T02:21:12;13.80;99.90
7972;DHT22;4031;49.758;6.120;2022-09-09T02:23:41;13.90;99.90
7972;DHT22;4031;49.758;6.120;2022-09-09T02:26:10;13.90;99.90
7972;DHT22;4031;49.758;6.120;2022-09-09T02:28:39;14.00;99.90
7972;DHT22;4031;49.758;6.120;2022-09-09T02:31:06;14.00;99.90
7972;DHT22;4031;49.758;6.120;2022-09-09T02:33:42;14.00;99.90
7972;DHT22;4031;49.758;6.120;2022-09-09T02:36:12;14.00;99.90
7972;DHT22;4031;49.758;6.120;2022-09-09T02:38:45;14.00;99.90
7972;DHT22;4031;49.758;6.120;2022-09-09T02:41:18;13.90;99.90
7972;DHT22;4031;49.758;6.120;2022-09-09T02:43:47;14.00;99.90
7972;DHT22;4031;49.758;6.120;2022-09-09T02:52:02;13.90;99.90
7972;DHT22;4031;49.758;6.120;2022-09-09T02:54:32;13.80;99.90
7972;DHT22;4031;49.758;6.120;2022-09-09T02:57:16;13.70;99.90
7972;DHT22;4031;49.758;6.120;2022-09-09T02:59:45;13.70;99.90
7972;DHT22;4031;49.758;6.120;2022-09-09T03:02:11;13.80;99.90
7972;DHT22;4031;49.758;6.120;2022-09-09T03:04:39;14.00;99.90
7972;DHT22;4031;49.758;6.120;2022-09-09T03:07:05;14.00;99.90
7972;DHT22;4031;49.758;6.120;2022-09-09T03:09:31;14.00;99.90
7972;DHT22;4031;49.758;6.120;2022-09-09T03:11:58;14.10;99.90
7972;DHT22;4031;49.758;6.120;2022-09-09T03:14:24;14.10;99.90
7972;DHT22;4031;49.758;6.120;2022-09-09T03:16:54;14.10;99.90
7972;DHT22;4031;49.758;6.120;2022-09-09T03:19:20;14.10;99.90
7972;DHT22;4031;49.758;6.120;2022-09-09T03:21:46;14.00;99.90
7972;DHT22;4031;49.758;6.120;2022-09-09T03:24:13;14.00;99.90
7972;DHT22;4031;49.758;6.120;2022-09-09T03:26:40;14.00;99.90
7972;DHT22;4031;49.758;6.120;2022-09-09T03:29:07;13.90;99.90
7972;DHT22;4031;49.758;6.120;2022-09-09T03:31:34;13.90;99.90
7972;DHT22;4031;49.758;6.120;2022-09-09T03:34:01;13.90;99.90
7972;DHT22;4031;49.758;6.120;2022-09-09T03:36:27;13.90;99.90
7972;DHT22;4031;49.758;6.120;2022-09-09T03:38:54;13.90;99.90
7972;DHT22;4031;49.758;6.120;2022-09-09T03:41:20;13.80;99.90
7972;DHT22;4031;49.758;6.120;2022-09-09T03:43:50;13.90;99.90
7972;DHT22;4031;49.758;6.120;2022-09-09T03:46:20;13.90;99.90
7972;DHT22;4031;49.758;6.120;2022-09-09T03:48:47;14.00;99.90
7972;DHT22;4031;49.758;6.120;2022-09-09T03:51:12;14.10;99.90
7972;DHT22;4031;49.758;6.120;2022-09-09T03:53:39;14.20;99.90
7972;DHT22;4031;49.758;6.120;2022-09-09T03:56:06;14.20;99.90
7972;DHT22;4031;49.758;6.120;2022-09-09T03:58:38;14.30;99.90
7972;DHT22;4031;49.758;6.120;2022-09-09T04:01:07;14.30;99.90
7972;DHT22;4031;49.758;6.120;2022-09-09T04:03:40;14.30;99.90
7972;DHT22;4031;49.758;6.120;2022-09-09T04:06:08;14.30;99.90
7972;DHT22;4031;49.758;6.120;2022-09-09T04:08:36;14.20;99.90
7972;DHT22;4031;49.758;6.120;2022-09-09T04:11:03;14.20;99.90
7972;DHT22;4031;49.758;6.120;2022-09-09T04:13:32;14.20;99.90
7972;DHT22;4031;49.758;6.120;2022-09-09T04:16:00;14.20;99.90
7972;DHT22;4031;49.758;6.120;2022-09-09T04:18:27;14.20;99.90
7972;DHT22;4031;49.758;6.120;2022-09-09T04:20:56;14.20;99.90
7972;DHT22;4031;49.758;6.120;2022-09-09T04:23:23;14.10;99.90
7972;DHT22;4031;49.758;6.120;2022-09-09T04:25:52;14.20;99.90
7972;DHT22;4031;49.758;6.120;2022-09-09T04:28:22;14.30;99.90
7972;DHT22;4031;49.758;6.120;2022-09-09T04:30:50;14.20;99.90
7972;DHT22;4031;49.758;6.120;2022-09-09T04:33:17;14.10;99.90
7972;DHT22;4031;49.758;6.120;2022-09-09T04:35:49;14.20;99.90
7972;DHT22;4031;49.758;6.120;2022-09-09T04:38:16;14.20;99.90
7972;DHT22;4031;49.758;6.120;2022-09-09T04:40:49;14.20;99.90
7972;DHT22;4031;49.758;6.120;2022-09-09T04:43:17;14.30;99.90
7972;DHT22;4031;49.758;6.120;2022-09-09T04:45:47;14.30;99.90
7972;DHT22;4031;49.758;6.120;2022-09-09T04:48:14;14.30;99.90
7972;DHT22;4031;49.758;6.120;2022-09-09T04:50:40;14.30;99.90
7972;DHT22;4031;49.758;6.120;2022-09-09T04:53:06;14.30;99.90
7972;DHT22;4031;49.758;6.120;2022-09-09T04:55:33;14.20;99.90
7972;DHT22;4031;49.758;6.120;2022-09-09T04:58:07;14.20;99.90
7972;DHT22;4031;49.758;6.120;2022-09-09T05:00:34;14.20;99.90
7972;DHT22;4031;49.758;6.120;2022-09-09T05:03:07;14.20;99.90
7972;DHT22;4031;49.758;6.120;2022-09-09T05:05:34;14.30;99.90
7972;DHT22;4031;49.758;6.120;2022-09-09T05:08:09;14.40;99.90
7972;DHT22;4031;49.758;6.120;2022-09-09T05:10:38;14.40;99.90
7972;DHT22;4031;49.758;6.120;2022-09-09T05:13:04;14.40;99.90
7972;DHT22;4031;49.758;6.120;2022-09-09T05:15:31;14.50;99.90
7972;DHT22;4031;49.758;6.120;2022-09-09T05:18:01;14.60;99.90
7972;DHT22;4031;49.758;6.120;2022-09-09T05:20:28;14.50;99.90
7972;DHT22;4031;49.758;6.120;2022-09-09T05:22:54;14.50;99.90
7972;DHT22;4031;49.758;6.120;2022-09-09T05:25:21;14.60;99.90
7972;DHT22;4031;49.758;6.120;2022-09-09T05:27:48;14.60;99.90
7972;DHT22;4031;49.758;6.120;2022-09-09T05:30:14;14.60;99.90
7972;DHT22;4031;49.758;6.120;2022-09-09T05:32:41;14.70;99.90
7972;DHT22;4031;49.758;6.120;2022-09-09T05:35:06;14.70;99.90
7972;DHT22;4031;49.758;6.120;2022-09-09T05:37:32;14.70;99.90
7972;DHT22;4031;49.758;6.120;2022-09-09T05:39:58;14.80;99.90
7972;DHT22;4031;49.758;6.120;2022-09-09T05:42:24;14.80;99.90
7972;DHT22;4031;49.758;6.120;2022-09-09T05:44:50;14.90;99.90
7972;DHT22;4031;49.758;6.120;2022-09-09T05:47:16;14.90;99.90
7972;DHT22;4031;49.758;6.120;2022-09-09T05:49:42;14.90;99.90
7972;DHT22;4031;49.758;6.120;2022-09-09T05:52:08;14.90;99.90
7972;DHT22;4031;49.758;6.120;2022-09-09T05:54:35;14.90;99.90
7972;DHT22;4031;49.758;6.120;2022-09-09T05:57:02;15.00;99.90
7972;DHT22;4031;49.758;6.120;2022-09-09T05:59:28;15.00;99.90
7972;DHT22;4031;49.758;6.120;2022-09-09T06:01:54;15.00;99.90
7972;DHT22;4031;49.758;6.120;2022-09-09T06:04:19;15.00;99.90
7972;DHT22;4031;49.758;6.120;2022-09-09T06:06:49;15.00;99.90
7972;DHT22;4031;49.758;6.120;2022-09-09T06:09:15;14.90;99.90
7972;DHT22;4031;49.758;6.120;2022-09-09T06:11:43;14.90;99.90
7972;DHT22;4031;49.758;6.120;2022-09-09T06:14:08;14.90;99.90
7972;DHT22;4031;49.758;6.120;2022-09-09T06:16:34;14.90;99.90
7972;DHT22;4031;49.758;6.120;2022-09-09T06:19:02;14.90;99.90
7972;DHT22;4031;49.758;6.120;2022-09-09T06:21:36;15.00;99.90
7972;DHT22;4031;49.758;6.120;2022-09-09T06:24:03;15.00;99.90
7972;DHT22;4031;49.758;6.120;2022-09-09T06:26:31;15.00;99.90
7972;DHT22;4031;49.758;6.120;2022-09-09T06:28:58;15.10;99.90
7972;DHT22;4031;49.758;6.120;2022-09-09T06:31:26;15.30;99.90
7972;DHT22;4031;49.758;6.120;2022-09-09T06:33:56;15.40;99.90
7972;DHT22;4031;49.758;6.120;2022-09-09T06:36:24;15.50;99.90
7972;DHT22;4031;49.758;6.120;2022-09-09T06:38:51;15.50;99.90
7972;DHT22;4031;49.758;6.120;2022-09-09T06:41:19;15.50;99.90
7972;DHT22;4031;49.758;6.120;2022-09-09T06:43:46;15.60;99.90
7972;DHT22;4031;49.758;6.120;2022-09-09T06:46:14;15.70;99.90
7972;DHT22;4031;49.758;6.120;2022-09-09T06:48:47;15.80;99.90
7972;DHT22;4031;49.758;6.120;2022-09-09T06:51:19;15.90;99.90
7972;DHT22;4031;49.758;6.120;2022-09-09T06:53:54;16.00;99.90
7972;DHT22;4031;49.758;6.120;2022-09-09T06:56:31;16.00;99.90
7972;DHT22;4031;49.758;6.120;2022-09-09T06:59:04;16.00;99.90
7972;DHT22;4031;49.758;6.120;2022-09-09T07:01:32;16.00;99.90
7972;DHT22;4031;49.758;6.120;2022-09-09T07:04:00;15.90;99.90
7972;DHT22;4031;49.758;6.120;2022-09-09T07:06:29;15.90;99.90
7972;DHT22;4031;49.758;6.120;2022-09-09T07:08:58;15.90;99.90
7972;DHT22;4031;49.758;6.120;2022-09-09T07:11:28;16.00;99.90
7972;DHT22;4031;49.758;6.120;2022-09-09T07:13:57;16.00;99.90
7972;DHT22;4031;49.758;6.120;2022-09-09T07:16:24;16.10;99.90
7972;DHT22;4031;49.758;6.120;2022-09-09T07:18:51;16.20;99.90
7972;DHT22;4031;49.758;6.120;2022-09-09T07:21:18;16.30;99.90
7972;DHT22;4031;49.758;6.120;2022-09-09T07:23:44;16.40;99.90
7972;DHT22;4031;49.758;6.120;2022-09-09T07:26:13;16.50;99.90
7972;DHT22;4031;49.758;6.120;2022-09-09T07:28:41;16.60;99.90
7972;DHT22;4031;49.758;6.120;2022-09-09T07:31:13;16.70;99.90
7972;DHT22;4031;49.758;6.120;2022-09-09T07:33:42;16.90;99.90
7972;DHT22;4031;49.758;6.120;2022-09-09T07:36:17;16.90;99.90
7972;DHT22;4031;49.758;6.120;2022-09-09T07:38:52;16.90;99.90
7972;DHT22;4031;49.758;6.120;2022-09-09T07:41:29;17.10;99.90
7972;DHT22;4031;49.758;6.120;2022-09-09T07:43:58;17.00;99.90
7972;DHT22;4031;49.758;6.120;2022-09-09T07:46:25;16.70;99.90
7972;DHT22;4031;49.758;6.120;2022-09-09T07:48:55;16.70;99.90
7972;DHT22;4031;49.758;6.120;2022-09-09T07:51:31;17.00;99.90
7972;DHT22;4031;49.758;6.120;2022-09-09T07:54:00;17.70;99.90
7972;DHT22;4031;49.758;6.120;2022-09-09T07:56:29;18.00;99.90
7972;DHT22;4031;49.758;6.120;2022-09-09T07:58:57;17.90;99.90
7972;DHT22;4031;49.758;6.120;2022-09-09T08:01:36;17.60;99.90
7972;DHT22;4031;49.758;6.120;2022-09-09T08:04:09;17.30;99.90
7972;DHT22;4031;49.758;6.120;2022-09-09T08:06:41;17.00;99.90
7972;DHT22;4031;49.758;6.120;2022-09-09T08:09:12;16.80;99.90
7972;DHT22;4031;49.758;6.120;2022-09-09T08:11:38;16.50;99.90
7972;DHT22;4031;49.758;6.120;2022-09-09T08:14:06;16.40;99.90
7972;DHT22;4031;49.758;6.120;2022-09-09T08:16:38;16.40;99.90
7972;DHT22;4031;49.758;6.120;2022-09-09T08:19:08;16.50;99.90
7972;DHT22;4031;49.758;6.120;2022-09-09T08:21:36;16.60;99.90
7972;DHT22;4031;49.758;6.120;2022-09-09T08:24:04;16.80;99.90
7972;DHT22;4031;49.758;6.120;2022-09-09T08:26:35;17.00;99.90
7972;DHT22;4031;49.758;6.120;2022-09-09T08:29:22;17.10;99.90
7972;DHT22;4031;49.758;6.120;2022-09-09T08:31:50;17.30;99.90
7972;DHT22;4031;49.758;6.120;2022-09-09T08:34:18;17.40;99.90
7972;DHT22;4031;49.758;6.120;2022-09-09T08:36:46;17.30;99.90
7972;DHT22;4031;49.758;6.120;2022-09-09T08:39:15;17.30;99.90
7972;DHT22;4031;49.758;6.120;2022-09-09T08:48:10;17.80;99.90
7972;DHT22;4031;49.758;6.120;2022-09-09T08:50:42;18.00;99.90
7972;DHT22;4031;49.758;6.120;2022-09-09T08:55:52;18.80;99.90
7972;DHT22;4031;49.758;6.120;2022-09-09T08:58:28;19.50;99.90
7972;DHT22;4031;49.758;6.120;2022-09-09T09:11:58;21.00;99.90
7972;DHT22;4031;49.758;6.120;2022-09-09T09:14:28;20.60;99.90
7972;DHT22;4031;49.758;6.120;2022-09-09T09:17:14;20.10;99.90
7972;DHT22;4031;49.758;6.120;2022-09-09T09:19:43;19.70;99.90
7972;DHT22;4031;49.758;6.120;2022-09-09T09:22:39;19.50;99.90
7972;DHT22;4031;49.758;6.120;2022-09-09T09:28:07;19.20;99.90
7972;DHT22;4031;49.758;6.120;2022-09-09T09:30:42;19.20;99.90
7972;DHT22;4031;49.758;6.120;2022-09-09T09:33:38;19.10;99.90
7972;DHT22;4031;49.758;6.120;2022-09-09T09:36:08;19.00;99.90
7972;DHT22;4031;49.758;6.120;2022-09-09T09:38:36;18.90;99.90
7972;DHT22;4031;49.758;6.120;2022-09-09T09:41:02;18.50;99.90
7972;DHT22;4031;49.758;6.120;2022-09-09T09:43:33;18.20;99.90
7972;DHT22;4031;49.758;6.120;2022-09-09T09:46:03;18.20;99.90
7972;DHT22;4031;49.758;6.120;2022-09-09T09:48:29;18.30;99.90
7972;DHT22;4031;49.758;6.120;2022-09-09T09:51:10;18.70;99.90
7972;DHT22;4031;49.758;6.120;2022-09-09T09:53:39;19.50;99.90
7972;DHT22;4031;49.758;6.120;2022-09-09T09:56:10;19.90;99.90
7972;DHT22;4031;49.758;6.120;2022-09-09T10:01:29;19.80;99.90
7972;DHT22;4031;49.758;6.120;2022-09-09T10:04:12;20.20;99.90
7972;DHT22;4031;49.758;6.120;2022-09-09T10:06:41;20.30;99.90
7972;DHT22;4031;49.758;6.120;2022-09-09T10:09:28;20.80;99.90
7972;DHT22;4031;49.758;6.120;2022-09-09T10:17:27;21.40;99.90
7972;DHT22;4031;49.758;6.120;2022-09-09T10:22:34;20.20;99.90
7972;DHT22;4031;49.758;6.120;2022-09-09T10:30:42;19.80;99.90
7972;DHT22;4031;49.758;6.120;2022-09-09T10:38:42;23.80;99.90
7972;DHT22;4031;49.758;6.120;2022-09-09T10:44:59;26.50;99.90
7972;DHT22;4031;49.758;6.120;2022-09-09T10:47:54;27.00;99.90
7972;DHT22;4031;49.758;6.120;2022-09-09T10:50:55;26.50;99.90
7972;DHT22;4031;49.758;6.120;2022-09-09T10:56:28;24.30;99.90
7972;DHT22;4031;49.758;6.120;2022-09-09T10:59:20;23.50;99.90
7972;DHT22;4031;49.758;6.120;2022-09-09T11:04:35;23.20;99.90
7972;DHT22;4031;49.758;6.120;2022-09-09T11:07:08;23.00;99.90
7972;DHT22;4031;49.758;6.120;2022-09-09T11:09:50;22.60;99.90
7972;DHT22;4031;49.758;6.120;2022-09-09T11:12:21;22.20;99.90
7972;DHT22;4031;49.758;6.120;2022-09-09T11:15:38;21.90;99.90
7972;DHT22;4031;49.758;6.120;2022-09-09T11:18:04;22.10;99.90
7972;DHT22;4031;49.758;6.120;2022-09-09T11:20:32;23.10;99.90
7972;DHT22;4031;49.758;6.120;2022-09-09T11:23:10;23.10;99.90
7972;DHT22;4031;49.758;6.120;2022-09-09T11:25:58;23.00;99.90
7972;DHT22;4031;49.758;6.120;2022-09-09T11:28:54;22.50;99.90
7972;DHT22;4031;49.758;6.120;2022-09-09T11:42:32;25.20;99.90
7972;DHT22;4031;49.758;6.120;2022-09-09T11:45:09;25.30;99.90
7972;DHT22;4031;49.758;6.120;2022-09-09T11:48:00;24.50;99.90
7972;DHT22;4031;49.758;6.120;2022-09-09T11:53:22;23.30;99.90
7972;DHT22;4031;49.758;6.120;2022-09-09T11:56:00;23.60;99.90
7972;DHT22;4031;49.758;6.120;2022-09-09T11:58:27;25.10;99.90
7972;DHT22;4031;49.758;6.120;2022-09-09T12:00:58;25.90;99.90
7972;DHT22;4031;49.758;6.120;2022-09-09T12:03:47;25.60;99.90
7972;DHT22;4031;49.758;6.120;2022-09-09T12:09:47;24.70;99.90
7972;DHT22;4031;49.758;6.120;2022-09-09T12:17:20;23.00;99.90
7972;DHT22;4031;49.758;6.120;2022-09-09T12:19:48;22.30;99.90
7972;DHT22;4031;49.758;6.120;2022-09-09T12:34:35;18.10;99.90
7972;DHT22;4031;49.758;6.120;2022-09-09T12:39:55;18.70;99.90
7972;DHT22;4031;49.758;6.120;2022-09-09T12:42:23;20.30;99.90
7972;DHT22;4031;49.758;6.120;2022-09-09T12:44:52;21.70;99.90
7972;DHT22;4031;49.758;6.120;2022-09-09T12:47:48;22.70;99.90
7972;DHT22;4031;49.758;6.120;2022-09-09T12:50:28;23.00;99.90
7972;DHT22;4031;49.758;6.120;2022-09-09T12:52:59;22.80;99.90
7972;DHT22;4031;49.758;6.120;2022-09-09T12:55:30;22.20;99.90
7972;DHT22;4031;49.758;6.120;2022-09-09T12:57:58;21.40;99.90
7972;DHT22;4031;49.758;6.120;2022-09-09T13:00:25;20.60;99.90
7972;DHT22;4031;49.758;6.120;2022-09-09T13:02:54;20.00;99.90
7972;DHT22;4031;49.758;6.120;2022-09-09T13:05:24;19.80;99.90
7972;DHT22;4031;49.758;6.120;2022-09-09T13:07:52;19.70;99.90
7972;DHT22;4031;49.758;6.120;2022-09-09T13:10:29;19.70;99.90
7972;DHT22;4031;49.758;6.120;2022-09-09T13:12:57;19.50;99.90
7972;DHT22;4031;49.758;6.120;2022-09-09T13:15:25;19.10;99.90
7972;DHT22;4031;49.758;6.120;2022-09-09T13:17:57;18.60;99.90
7972;DHT22;4031;49.758;6.120;2022-09-09T13:20:26;18.10;99.90
7972;DHT22;4031;49.758;6.120;2022-09-09T13:22:53;17.40;99.90
7972;DHT22;4031;49.758;6.120;2022-09-09T13:25:31;16.80;99.90
7972;DHT22;4031;49.758;6.120;2022-09-09T13:28:03;16.40;99.90
7972;DHT22;4031;49.758;6.120;2022-09-09T13:30:35;16.00;99.90
7972;DHT22;4031;49.758;6.120;2022-09-09T13:35:36;15.70;99.90
7972;DHT22;4031;49.758;6.120;2022-09-09T13:38:20;15.50;99.90
7972;DHT22;4031;49.758;6.120;2022-09-09T13:41:19;15.40;99.90
7972;DHT22;4031;49.758;6.120;2022-09-09T13:43:47;15.40;99.90
7972;DHT22;4031;49.758;6.120;2022-09-09T13:46:36;15.40;99.90
7972;DHT22;4031;49.758;6.120;2022-09-09T13:49:22;15.30;99.90
7972;DHT22;4031;49.758;6.120;2022-09-09T13:51:50;15.30;99.90
7972;DHT22;4031;49.758;6.120;2022-09-09T13:54:19;15.30;99.90
7972;DHT22;4031;49.758;6.120;2022-09-09T13:56:47;15.30;99.90
7972;DHT22;4031;49.758;6.120;2022-09-09T13:59:19;15.30;99.90
7972;DHT22;4031;49.758;6.120;2022-09-09T14:01:45;15.30;99.90
7972;DHT22;4031;49.758;6.120;2022-09-09T14:04:11;15.40;99.90
7972;DHT22;4031;49.758;6.120;2022-09-09T14:06:39;15.50;99.90
7972;DHT22;4031;49.758;6.120;2022-09-09T14:09:15;15.60;99.90
7972;DHT22;4031;49.758;6.120;2022-09-09T14:11:43;15.70;99.90
7972;DHT22;4031;49.758;6.120;2022-09-09T14:14:10;15.90;99.90
7972;DHT22;4031;49.758;6.120;2022-09-09T14:16:36;16.10;99.90
7972;DHT22;4031;49.758;6.120;2022-09-09T14:19:03;16.40;99.90
7972;DHT22;4031;49.758;6.120;2022-09-09T14:21:29;16.40;99.90
7972;DHT22;4031;49.758;6.120;2022-09-09T14:23:55;16.60;99.90
7972;DHT22;4031;49.758;6.120;2022-09-09T14:26:24;16.70;99.90
7972;DHT22;4031;49.758;6.120;2022-09-09T14:28:49;16.80;99.90
7972;DHT22;4031;49.758;6.120;2022-09-09T14:31:16;17.00;99.90
7972;DHT22;4031;49.758;6.120;2022-09-09T14:33:45;17.00;99.90
7972;DHT22;4031;49.758;6.120;2022-09-09T14:36:11;17.10;99.90
7972;DHT22;4031;49.758;6.120;2022-09-09T14:38:38;17.10;99.90
7972;DHT22;4031;49.758;6.120;2022-09-09T14:41:10;17.20;99.90
7972;DHT22;4031;49.758;6.120;2022-09-09T14:43:40;17.20;99.90
7972;DHT22;4031;49.758;6.120;2022-09-09T14:46:10;17.30;99.90
7972;DHT22;4031;49.758;6.120;2022-09-09T14:48:37;17.60;99.90
7972;DHT22;4031;49.758;6.120;2022-09-09T14:51:14;17.80;99.90
7972;DHT22;4031;49.758;6.120;2022-09-09T14:53:42;17.60;99.90
7972;DHT22;4031;49.758;6.120;2022-09-09T14:56:18;17.50;99.90
7972;DHT22;4031;49.758;6.120;2022-09-09T14:58:45;17.40;99.90
7972;DHT22;4031;49.758;6.120;2022-09-09T15:01:13;17.30;99.90
7972;DHT22;4031;49.758;6.120;2022-09-09T15:03:42;17.20;99.90
7972;DHT22;4031;49.758;6.120;2022-09-09T15:06:14;17.00;99.90
7972;DHT22;4031;49.758;6.120;2022-09-09T15:08:42;16.80;99.90
7972;DHT22;4031;49.758;6.120;2022-09-09T15:11:10;16.60;99.90
7972;DHT22;4031;49.758;6.120;2022-09-09T15:13:37;16.50;99.90
7972;DHT22;4031;49.758;6.120;2022-09-09T15:16:17;16.40;99.90
7972;DHT22;4031;49.758;6.120;2022-09-09T15:18:45;16.30;99.90
7972;DHT22;4031;49.758;6.120;2022-09-09T15:21:16;16.20;99.90
7972;DHT22;4031;49.758;6.120;2022-09-09T15:23:47;16.10;99.90
7972;DHT22;4031;49.758;6.120;2022-09-09T15:26:14;16.00;99.90
7972;DHT22;4031;49.758;6.120;2022-09-09T15:28:41;15.80;99.90
7972;DHT22;4031;49.758;6.120;2022-09-09T15:31:14;15.70;99.90
7972;DHT22;4031;49.758;6.120;2022-09-09T15:33:54;15.50;99.90
7972;DHT22;4031;49.758;6.120;2022-09-09T15:36:33;15.40;99.90
7972;DHT22;4031;49.758;6.120;2022-09-09T15:39:03;15.20;99.90
7972;DHT22;4031;49.758;6.120;2022-09-09T15:41:31;15.10;99.90
7972;DHT22;4031;49.758;6.120;2022-09-09T15:43:57;15.00;99.90
7972;DHT22;4031;49.758;6.120;2022-09-09T15:46:33;15.00;99.90
7972;DHT22;4031;49.758;6.120;2022-09-09T15:49:08;15.00;99.90
7972;DHT22;4031;49.758;6.120;2022-09-09T15:51:37;15.00;99.90
7972;DHT22;4031;49.758;6.120;2022-09-09T15:54:05;15.00;99.90
7972;DHT22;4031;49.758;6.120;2022-09-09T15:56:31;15.10;99.90
7972;DHT22;4031;49.758;6.120;2022-09-09T15:58:58;15.20;99.90
7972;DHT22;4031;49.758;6.120;2022-09-09T16:01:26;15.30;99.90
7972;DHT22;4031;49.758;6.120;2022-09-09T16:03:52;15.40;99.90
7972;DHT22;4031;49.758;6.120;2022-09-09T16:06:21;15.60;99.90
7972;DHT22;4031;49.758;6.120;2022-09-09T16:08:50;15.70;99.90
7972;DHT22;4031;49.758;6.120;2022-09-09T16:11:22;15.90;99.90
7972;DHT22;4031;49.758;6.120;2022-09-09T16:13:50;16.00;99.90
7972;DHT22;4031;49.758;6.120;2022-09-09T16:16:19;16.10;99.90
7972;DHT22;4031;49.758;6.120;2022-09-09T16:18:48;16.30;99.90
7972;DHT22;4031;49.758;6.120;2022-09-09T16:21:28;16.60;99.90
7972;DHT22;4031;49.758;6.120;2022-09-09T16:23:56;16.90;99.90
7972;DHT22;4031;49.758;6.120;2022-09-09T16:26:25;17.40;99.90
7972;DHT22;4031;49.758;6.120;2022-09-09T16:28:54;17.70;99.90
7972;DHT22;4031;49.758;6.120;2022-09-09T16:31:22;17.70;99.90
7972;DHT22;4031;49.758;6.120;2022-09-09T16:33:48;17.60;99.90
7972;DHT22;4031;49.758;6.120;2022-09-09T16:36:17;17.60;99.90
7972;DHT22;4031;49.758;6.120;2022-09-09T16:38:48;17.70;99.90
7972;DHT22;4031;49.758;6.120;2022-09-09T16:41:17;17.70;99.90
7972;DHT22;4031;49.758;6.120;2022-09-09T16:43:45;17.60;99.90
7972;DHT22;4031;49.758;6.120;2022-09-09T16:46:16;17.50;99.90
7972;DHT22;4031;49.758;6.120;2022-09-09T16:48:44;17.50;99.90
7972;DHT22;4031;49.758;6.120;2022-09-09T16:51:22;17.50;99.90
7972;DHT22;4031;49.758;6.120;2022-09-09T16:53:50;17.30;99.90
7972;DHT22;4031;49.758;6.120;2022-09-09T16:56:19;17.00;99.90
7972;DHT22;4031;49.758;6.120;2022-09-09T16:59:05;16.80;99.90
7972;DHT22;4031;49.758;6.120;2022-09-09T17:01:36;16.50;99.90
7972;DHT22;4031;49.758;6.120;2022-09-09T17:04:06;16.40;99.90
7972;DHT22;4031;49.758;6.120;2022-09-09T17:06:34;16.40;99.90
7972;DHT22;4031;49.758;6.120;2022-09-09T17:09:02;16.40;99.90
7972;DHT22;4031;49.758;6.120;2022-09-09T17:11:30;16.30;99.90
7972;DHT22;4031;49.758;6.120;2022-09-09T17:13:57;16.30;99.90
7972;DHT22;4031;49.758;6.120;2022-09-09T17:16:25;16.20;99.90
7972;DHT22;4031;49.758;6.120;2022-09-09T17:18:53;16.10;99.90
7972;DHT22;4031;49.758;6.120;2022-09-09T17:21:26;16.00;99.90
7972;DHT22;4031;49.758;6.120;2022-09-09T17:23:54;15.90;99.90
7972;DHT22;4031;49.758;6.120;2022-09-09T17:26:23;15.90;99.90
7972;DHT22;4031;49.758;6.120;2022-09-09T17:28:52;15.90;99.90
7972;DHT22;4031;49.758;6.120;2022-09-09T17:31:18;15.90;99.90
7972;DHT22;4031;49.758;6.120;2022-09-09T17:33:47;15.80;99.90
7972;DHT22;4031;49.758;6.120;2022-09-09T17:38:42;15.80;99.90
7972;DHT22;4031;49.758;6.120;2022-09-09T17:43:40;15.70;99.90
7972;DHT22;4031;49.758;6.120;2022-09-09T17:46:22;15.50;99.90
7972;DHT22;4031;49.758;6.120;2022-09-09T17:48:50;15.40;99.90
7972;DHT22;4031;49.758;6.120;2022-09-09T17:51:20;15.30;99.90
7972;DHT22;4031;49.758;6.120;2022-09-09T17:53:51;15.20;99.90
7972;DHT22;4031;49.758;6.120;2022-09-09T17:56:20;15.10;99.90
7972;DHT22;4031;49.758;6.120;2022-09-09T17:58:50;14.90;99.90
7972;DHT22;4031;49.758;6.120;2022-09-09T18:01:19;14.80;99.90
7972;DHT22;4031;49.758;6.120;2022-09-09T18:03:49;14.70;99.90
7972;DHT22;4031;49.758;6.120;2022-09-09T18:06:18;14.60;99.90
7972;DHT22;4031;49.758;6.120;2022-09-09T18:08:54;14.40;99.90
7972;DHT22;4031;49.758;6.120;2022-09-09T18:11:24;14.30;99.90
7972;DHT22;4031;49.758;6.120;2022-09-09T18:13:54;14.30;99.90
7972;DHT22;4031;49.758;6.120;2022-09-09T18:16:22;14.20;99.90
7972;DHT22;4031;49.758;6.120;2022-09-09T18:18:49;14.10;99.90
7972;DHT22;4031;49.758;6.120;2022-09-09T18:21:16;14.10;99.90
7972;DHT22;4031;49.758;6.120;2022-09-09T18:23:44;14.10;99.90
7972;DHT22;4031;49.758;6.120;2022-09-09T18:26:18;14.10;99.90
7972;DHT22;4031;49.758;6.120;2022-09-09T18:28:52;14.10;99.90
7972;DHT22;4031;49.758;6.120;2022-09-09T18:31:24;14.10;99.90
7972;DHT22;4031;49.758;6.120;2022-09-09T18:33:52;14.20;99.90
7972;DHT22;4031;49.758;6.120;2022-09-09T18:36:25;14.20;99.90
7972;DHT22;4031;49.758;6.120;2022-09-09T18:38:52;14.30;99.90
7972;DHT22;4031;49.758;6.120;2022-09-09T18:43:46;14.50;99.90
7972;DHT22;4031;49.758;6.120;2022-09-09T18:46:16;14.50;99.90
7972;DHT22;4031;49.758;6.120;2022-09-09T18:48:45;14.60;99.90
7972;DHT22;4031;49.758;6.120;2022-09-09T18:51:13;14.60;99.90
7972;DHT22;4031;49.758;6.120;2022-09-09T18:53:41;14.70;99.90
7972;DHT22;4031;49.758;6.120;2022-09-09T18:56:10;14.70;99.90
7972;DHT22;4031;49.758;6.120;2022-09-09T18:58:37;14.70;99.90
7972;DHT22;4031;49.758;6.120;2022-09-09T19:01:08;14.70;99.90